Time;durP1;ratioP1;P1;durP2;ratioP2;P2;SDS_P1;SDS_P2;PMS_P1;PMS_P2;Temp;Humidity;BMP_temperature;BMP_pressure;BME280_temperature;BME280_humidity;BME280_pressure;Samples;Min_cycle;Max_cycle;Signal;HPM_P1;HPM_P2
2023/06/01 00:01:50;;;;;;;11.30;10.32;;;;;;;15.80;100.00;95183.91;5009034;28;20203;-59
2023/06/01 00:04:17;;;;;;;12.27;9.85;;;;;;;15.77;100.00;95183.25;5008004;28;22340;-60
2023/06/01 00:06:46;;;;;;;10.15;9.23;;;;;;;15.77;100.00;95180.69;5009600;28;20605;-60
2023/06/01 00:09:12;;;;;;;11.85;10.65;;;;;;;15.72;100.00;95180.91;5008216;28;20211;-59
2023/06/01 00:11:39;;;;;;;13.02;9.40;;;;;;;15.73;100.00;95171.50;5009682;28;20234;-58
2023/06/01 00:14:06;;;;;;;10.15;8.27;;;;;;;15.71;100.00;95166.44;5008536;28;20300;-59
2023/06/01 00:16:32;;;;;;;8.15;7.45;;;;;;;15.74;100.00;95162.91;5008762;28;21158;-59
2023/06/01 00:19:00;;;;;;;8.95;8.18;;;;;;;15.80;100.00;95168.53;5008201;28;20203;-55
2023/06/01 00:21:27;;;;;;;8.65;8.05;;;;;;;15.89;100.00;95164.66;5009198;28;20221;-60
2023/06/01 00:23:55;;;;;;;9.30;8.40;;;;;;;15.90;100.00;95168.88;5008617;28;21921;-56
2023/06/01 00:26:22;;;;;;;10.52;7.90;;;;;;;15.90;100.00;95171.44;5008384;28;20460;-59
2023/06/01 00:28:48;;;;;;;24.33;8.60;;;;;;;15.84;100.00;95184.56;5006825;28;20213;-58
2023/06/01 00:31:15;;;;;;;9.30;8.32;;;;;;;15.76;100.00;95174.72;5009756;28;20227;-60
2023/06/01 00:33:42;;;;;;;8.43;7.88;;;;;;;15.77;100.00;95178.94;5006603;28;20707;-60
2023/06/01 00:36:09;;;;;;;9.43;8.15;;;;;;;15.89;100.00;95182.59;5008044;28;20238;-59
2023/06/01 00:38:36;;;;;;;9.65;8.85;;;;;;;15.84;100.00;95182.00;5004787;28;20289;-55
2023/06/01 00:41:04;;;;;;;10.55;8.52;;;;;;;15.96;100.00;95183.94;5008979;28;20286;-60
2023/06/01 00:43:30;;;;;;;14.98;9.73;;;;;;;16.05;100.00;95172.38;5008467;28;20818;-60
2023/06/01 00:45:57;;;;;;;13.23;10.77;;;;;;;16.15;100.00;95179.47;5008129;28;20214;-59
2023/06/01 00:48:24;;;;;;;13.05;11.77;;;;;;;16.26;100.00;95177.19;5007396;28;20211;-58
2023/06/01 00:50:51;;;;;;;15.95;12.98;;;;;;;16.25;100.00;95170.38;5006167;28;20231;-60
2023/06/01 00:53:19;;;;;;;15.27;10.55;;;;;;;16.42;98.85;95171.22;5007268;28;20294;-57
2023/06/01 00:55:46;;;;;;;20.63;10.63;;;;;;;16.45;98.74;95168.47;5007541;28;20215;-59
2023/06/01 00:58:15;;;;;;;11.98;9.82;;;;;;;16.47;98.68;95169.22;5006844;28;20203;-59
2023/06/01 01:00:42;;;;;;;13.85;10.98;;;;;;;16.42;98.15;95166.06;5007167;28;20240;-56
2023/06/01 01:03:09;;;;;;;37.80;10.90;;;;;;;16.47;97.41;95169.22;5007259;28;20219;-58
2023/06/01 01:05:37;;;;;;;15.77;11.30;;;;;;;16.32;98.40;95174.28;5005289;28;20203;-59
2023/06/01 01:08:14;;;;;;;12.77;10.05;;;;;;;16.19;99.14;95178.41;5005449;28;21012;-59
2023/06/01 01:10:46;;;;;;;11.95;10.57;;;;;;;16.19;100.00;95175.00;5007978;28;20238;-59
2023/06/01 01:13:21;;;;;;;15.65;11.25;;;;;;;16.36;99.29;95182.63;5006825;28;20280;-58
2023/06/01 01:15:57;;;;;;;23.02;11.82;;;;;;;16.23;99.44;95179.91;5007805;28;20264;-60
2023/06/01 01:18:32;;;;;;;20.30;11.93;;;;;;;16.38;99.03;95180.78;5006337;28;20268;-60
2023/06/01 01:21:01;;;;;;;11.60;10.38;;;;;;;16.33;99.39;95188.72;5006359;28;20203;-59
2023/06/01 01:23:49;;;;;;;16.20;10.85;;;;;;;16.31;99.70;95185.47;5007617;28;20264;-57
2023/06/01 01:26:25;;;;;;;12.98;11.73;;;;;;;16.36;99.43;95186.91;5007540;28;20211;-59
2023/06/01 01:28:55;;;;;;;20.15;12.23;;;;;;;16.44;98.08;95179.66;5006913;28;20222;-58
2023/06/01 01:31:25;;;;;;;12.88;11.65;;;;;;;16.33;98.87;95185.38;5007397;28;20229;-59
2023/06/01 01:33:55;;;;;;;14.73;12.68;;;;;;;16.20;99.67;95176.66;5007508;28;20302;-59
2023/06/01 01:36:23;;;;;;;15.50;12.82;;;;;;;16.20;100.00;95180.06;5007995;28;20233;-59
2023/06/01 01:38:50;;;;;;;16.33;13.40;;;;;;;16.19;100.00;95180.97;5005194;28;20303;-59
2023/06/01 01:41:17;;;;;;;14.23;12.73;;;;;;;16.23;100.00;95182.47;5007227;28;20239;-61
2023/06/01 01:43:44;;;;;;;14.70;13.07;;;;;;;16.20;99.94;95181.81;5008270;28;20253;-61
2023/06/01 01:46:22;;;;;;;19.58;13.10;;;;;;;16.22;100.00;95185.94;5008955;28;20210;-60
2023/06/01 01:48:55;;;;;;;16.13;12.73;;;;;;;16.16;99.92;95181.13;5011027;28;20799;-60
2023/06/01 01:51:28;;;;;;;21.95;12.65;;;;;;;16.10;99.93;95166.06;5010547;28;20763;-58
2023/06/01 01:53:57;;;;;;;24.08;13.13;;;;;;;16.13;99.98;95180.47;5011696;28;20219;-59
2023/06/01 01:56:25;;;;;;;17.08;12.00;;;;;;;16.18;100.00;95184.44;5011093;28;20211;-58
2023/06/01 01:58:54;;;;;;;22.20;12.50;;;;;;;16.19;99.06;95193.78;5010322;28;20198;-58
2023/06/01 02:01:22;;;;;;;17.85;13.88;;;;;;;16.08;99.75;95192.72;5009889;28;20284;-56
2023/06/01 02:03:58;;;;;;;15.73;13.05;;;;;;;16.07;100.00;95191.91;5011528;28;20397;-57
2023/06/01 02:06:25;;;;;;;14.68;12.95;;;;;;;15.97;100.00;95170.22;5010543;28;20329;-57
2023/06/01 02:08:52;;;;;;;13.35;12.05;;;;;;;16.07;100.00;95186.78;5009399;28;20294;-56
2023/06/01 02:11:18;;;;;;;18.27;12.77;;;;;;;16.09;100.00;95190.06;5010717;28;20330;-57
2023/06/01 02:13:45;;;;;;;15.15;12.77;;;;;;;16.11;99.87;95188.22;5009388;28;20885;-57
2023/06/01 02:16:12;;;;;;;29.90;12.15;;;;;;;16.05;99.52;95195.44;5011074;28;20771;-57
2023/06/01 02:18:41;;;;;;;26.70;13.70;;;;;;;15.94;99.89;95196.00;5008294;28;20301;-58
2023/06/01 02:21:08;;;;;;;23.60;13.07;;;;;;;15.90;100.00;95194.50;5009761;28;20217;-56
2023/06/01 02:23:35;;;;;;;14.60;13.25;;;;;;;16.01;100.00;95193.94;5011695;28;20210;-59
2023/06/01 02:26:02;;;;;;;22.20;12.02;;;;;;;16.08;99.97;95195.28;5010548;28;20768;-59
2023/06/01 02:28:29;;;;;;;15.30;13.68;;;;;;;16.10;99.15;95194.28;5009906;28;20647;-58
2023/06/01 02:30:55;;;;;;;13.30;12.13;;;;;;;16.11;99.32;95197.66;5010383;28;20353;-58
2023/06/01 02:33:24;;;;;;;14.43;12.90;;;;;;;16.02;100.00;95193.88;5010436;28;21414;-58
2023/06/01 02:35:52;;;;;;;21.02;12.82;;;;;;;16.15;99.36;95194.03;5010029;28;20203;-59
2023/06/01 02:38:19;;;;;;;14.30;12.90;;;;;;;16.13;97.94;95196.69;5007615;28;21903;-58
2023/06/01 02:40:46;;;;;;;17.85;11.55;;;;;;;16.12;97.86;95197.59;5010386;28;20298;-60
2023/06/01 02:43:12;;;;;;;12.75;11.50;;;;;;;15.96;98.83;95194.19;5010669;28;21345;-57
2023/06/01 02:45:39;;;;;;;16.13;14.20;;;;;;;15.94;99.99;95201.13;5009776;28;20215;-57
2023/06/01 02:48:06;;;;;;;13.77;12.57;;;;;;;15.99;100.00;95197.41;5007674;28;20211;-56
2023/06/01 02:50:32;;;;;;;13.43;12.05;;;;;;;16.01;99.85;95194.78;5010024;28;20667;-59
2023/06/01 02:53:01;;;;;;;19.58;12.90;;;;;;;15.98;100.00;95198.31;5009650;28;20648;-59
2023/06/01 02:55:27;;;;;;;14.60;12.88;;;;;;;15.98;100.00;95197.50;5010116;28;20888;-59
2023/06/01 02:57:54;;;;;;;41.20;12.68;;;;;;;15.92;100.00;95201.19;5008231;28;20279;-61
2023/06/01 03:00:21;;;;;;;15.27;11.38;;;;;;;15.93;100.00;95194.34;5009557;28;20207;-56
2023/06/01 03:02:49;;;;;;;15.02;12.93;;;;;;;16.03;99.40;95198.09;5010288;28;20616;-59
2023/06/01 03:05:16;;;;;;;13.13;11.93;;;;;;;16.19;99.11;95201.47;5011851;28;20761;-59
2023/06/01 03:07:44;;;;;;;14.30;12.73;;;;;;;16.22;98.71;95190.25;5008900;28;20233;-55
2023/06/01 03:10:13;;;;;;;14.00;12.65;;;;;;;16.20;99.00;95192.88;5010553;28;21293;-60
2023/06/01 03:12:40;;;;;;;14.52;13.02;;;;;;;16.18;99.41;95202.38;5009511;28;20207;-57
2023/06/01 03:15:07;;;;;;;13.93;12.57;;;;;;;16.22;99.27;95196.19;5010948;28;20314;-59
2023/06/01 03:17:34;;;;;;;15.98;12.18;;;;;;;16.20;99.42;95208.28;5010445;28;20290;-59
2023/06/01 03:20:02;;;;;;;14.02;12.43;;;;;;;16.25;99.27;95206.28;5011063;28;20286;-60
2023/06/01 03:22:29;;;;;;;25.92;13.68;;;;;;;16.49;96.81;95205.88;5010669;28;20273;-57
2023/06/01 03:24:57;;;;;;;15.68;14.07;;;;;;;16.49;95.36;95208.44;5009886;28;20211;-59
2023/06/01 03:27:25;;;;;;;69.30;13.70;;;;;;;16.03;96.96;95210.06;5010179;28;20912;-57
2023/06/01 03:29:52;;;;;;;14.65;12.73;;;;;;;16.02;98.15;95206.69;5008684;28;20214;-60
2023/06/01 03:32:18;;;;;;;14.30;13.00;;;;;;;16.13;98.24;95200.97;5009884;28;20311;-60
2023/06/01 03:34:45;;;;;;;22.50;14.35;;;;;;;16.12;97.36;95207.84;5009594;28;20211;-59
2023/06/01 03:37:12;;;;;;;22.17;15.13;;;;;;;16.05;97.78;95203.13;5007287;28;20288;-56
2023/06/01 03:39:39;;;;;;;15.95;14.23;;;;;;;16.02;98.63;95209.25;5009203;28;20576;-58
2023/06/01 03:42:06;;;;;;;15.65;13.82;;;;;;;15.97;99.41;95191.53;5009317;28;20206;-58
2023/06/01 03:44:35;;;;;;;15.75;13.73;;;;;;;16.18;97.93;95199.00;5009230;28;20226;-59
2023/06/01 03:47:02;;;;;;;20.88;13.35;;;;;;;16.39;95.42;95208.09;5008532;28;20431;-60
2023/06/01 03:49:28;;;;;;;16.02;13.30;;;;;;;16.43;94.91;95216.47;5008397;28;20332;-56
2023/06/01 03:51:55;;;;;;;15.93;13.68;;;;;;;16.45;94.96;95222.34;5009644;28;21212;-56
2023/06/01 03:54:22;;;;;;;17.90;14.20;;;;;;;16.44;94.30;95220.69;5009368;28;20361;-59
2023/06/01 03:56:49;;;;;;;20.95;15.63;;;;;;;16.18;94.46;95225.47;5009033;28;20293;-57
2023/06/01 03:59:16;;;;;;;18.85;15.00;;;;;;;15.92;96.36;95215.75;5007451;28;20211;-58
2023/06/01 04:01:44;;;;;;;19.95;16.13;;;;;;;15.91;97.57;95217.47;5010385;28;20262;-57
2023/06/01 04:04:12;;;;;;;16.75;15.05;;;;;;;15.99;98.12;95214.53;5009771;28;20203;-57
2023/06/01 04:06:41;;;;;;;18.92;16.20;;;;;;;16.20;97.26;95213.41;5010508;28;20199;-60
2023/06/01 04:09:09;;;;;;;25.75;19.00;;;;;;;16.17;96.31;95213.56;5004497;28;20207;-56
2023/06/01 04:11:36;;;;;;;19.58;17.15;;;;;;;16.25;96.23;95221.69;5008735;28;20237;-55
2023/06/01 04:14:03;;;;;;;19.67;16.20;;;;;;;16.25;96.00;95221.69;5009508;28;20297;-55
2023/06/01 04:16:29;;;;;;;23.70;18.00;;;;;;;16.28;95.54;95226.66;5009209;28;20217;-56
2023/06/01 04:18:58;;;;;;;23.42;18.67;;;;;;;16.34;95.42;95226.28;5006873;28;20335;-59
2023/06/01 04:21:25;;;;;;;24.25;18.40;;;;;;;16.51;94.74;95230.53;5010024;28;20623;-58
2023/06/01 04:23:51;;;;;;;26.15;21.02;;;;;;;16.56;94.49;95223.44;5004849;28;20233;-54
2023/06/01 04:26:18;;;;;;;28.75;21.65;;;;;;;16.54;94.39;95232.13;5008335;28;20298;-57
2023/06/01 04:28:45;;;;;;;28.75;18.52;;;;;;;16.55;94.63;95223.50;5006357;28;20321;-57
2023/06/01 04:31:16;;;;;;;18.98;15.70;;;;;;;16.66;94.45;95218.63;5006074;28;20306;-57
2023/06/01 04:33:44;;;;;;;20.25;17.58;;;;;;;16.92;91.74;95228.28;5005870;28;20673;-59
2023/06/01 04:36:13;;;;;;;20.45;18.45;;;;;;;16.75;91.05;95223.28;5007408;28;20733;-57
2023/06/01 04:38:41;;;;;;;25.65;19.70;;;;;;;16.59;92.51;95230.09;5005369;28;20685;-55
2023/06/01 04:41:09;;;;;;;19.73;17.63;;;;;;;16.54;93.63;95232.13;5008812;28;20214;-59
2023/06/01 04:43:38;;;;;;;25.83;20.10;;;;;;;16.59;93.69;95230.09;5007665;28;20207;-56
2023/06/01 04:46:05;;;;;;;24.55;17.40;;;;;;;16.64;93.72;95235.84;5008163;28;20221;-59
2023/06/01 04:48:32;;;;;;;26.98;19.23;;;;;;;16.67;93.39;95238.25;5008669;28;20221;-58
2023/06/01 04:50:59;;;;;;;21.95;18.08;;;;;;;16.73;93.84;95247.38;5007025;28;20242;-58
2023/06/01 04:53:27;;;;;;;19.88;17.80;;;;;;;16.77;93.63;95239.41;5005594;28;20211;-57
2023/06/01 04:55:56;;;;;;;20.67;17.27;;;;;;;16.83;93.72;95241.63;5008244;28;20213;-58
2023/06/01 04:58:23;;;;;;;24.75;17.90;;;;;;;16.87;93.58;95240.56;5007257;28;20370;-59
2023/06/01 05:00:50;;;;;;;23.15;17.83;;;;;;;16.93;93.57;95242.78;5006702;28;20203;-59
2023/06/01 05:03:17;;;;;;;21.35;16.85;;;;;;;17.00;92.27;95244.09;5006959;28;20240;-60
2023/06/01 05:05:45;;;;;;;24.75;18.20;;;;;;;17.20;91.53;95242.97;5006927;28;20207;-58
2023/06/01 05:08:11;;;;;;;18.90;16.90;;;;;;;17.24;91.24;95236.75;5005948;28;20977;-56
2023/06/01 05:10:40;;;;;;;21.85;17.30;;;;;;;17.43;89.64;95244.25;5006118;28;20297;-55
2023/06/01 05:13:06;;;;;;;19.25;17.25;;;;;;;17.51;89.00;95234.34;5006508;28;20234;-56
2023/06/01 05:15:33;;;;;;;19.27;16.85;;;;;;;17.48;89.68;95244.81;5006598;28;20276;-57
2023/06/01 05:18:00;;;;;;;22.63;18.13;;;;;;;17.61;89.06;95240.59;5007379;28;20765;-58
2023/06/01 05:20:26;;;;;;;20.08;17.35;;;;;;;17.68;89.09;95238.53;5007532;28;20243;-56
2023/06/01 05:22:53;;;;;;;21.73;17.42;;;;;;;17.93;87.76;95243.06;5012219;28;20866;-58
2023/06/01 05:25:20;;;;;;;21.52;17.50;;;;;;;18.08;85.88;95242.13;5010480;28;20305;-56
2023/06/01 05:27:48;;;;;;;19.35;17.27;;;;;;;18.12;85.90;95247.94;5011441;28;20289;-58
2023/06/01 05:30:14;;;;;;;18.67;16.73;;;;;;;18.21;85.42;95237.91;5009772;28;20437;-55
2023/06/01 05:32:41;;;;;;;19.80;17.73;;;;;;;18.44;85.35;95243.41;5011368;28;21184;-58
2023/06/01 05:35:09;;;;;;;20.02;17.88;;;;;;;18.79;83.06;95239.50;5009688;28;20301;-57
2023/06/01 05:37:35;;;;;;;20.63;18.42;;;;;;;18.98;81.42;95240.00;5010298;28;20234;-58
2023/06/01 05:40:04;;;;;;;22.05;19.70;;;;;;;19.11;81.03;95244.34;5008453;28;20302;-58
2023/06/01 05:42:30;;;;;;;22.17;18.20;;;;;;;19.30;80.23;95239.69;5010236;28;20802;-55
2023/06/01 05:44:58;;;;;;;27.95;18.70;;;;;;;19.73;78.94;95244.63;5010363;28;20696;-55
2023/06/01 05:47:25;;;;;;;27.23;18.35;;;;;;;20.08;77.06;95243.06;5010266;28;20231;-59
2023/06/01 05:49:52;;;;;;;24.77;19.08;;;;;;;20.36;75.99;95245.41;5009217;28;20293;-59
2023/06/01 05:52:18;;;;;;;23.17;20.30;;;;;;;20.52;75.05;95244.38;5010951;28;20275;-59
2023/06/01 05:54:45;;;;;;;21.23;18.40;;;;;;;21.12;73.96;95246.13;5009684;28;20235;-60
2023/06/01 05:57:12;;;;;;;19.75;17.08;;;;;;;22.08;70.25;95237.28;5011006;28;20295;-62
2023/06/01 05:59:39;;;;;;;19.35;17.33;;;;;;;22.27;66.68;95242.69;5009225;28;20289;-55
2023/06/01 06:02:07;;;;;;;19.40;16.90;;;;;;;22.56;66.79;95245.63;5010023;28;20489;-55
2023/06/01 06:04:34;;;;;;;21.92;18.00;;;;;;;22.98;66.39;95238.88;5010052;28;20643;-59
2023/06/01 06:07:00;;;;;;;20.17;17.88;;;;;;;23.44;63.80;95240.34;5010716;28;20321;-59
2023/06/01 06:09:27;;;;;;;19.38;16.67;;;;;;;23.48;62.66;95244.34;5010385;28;20212;-60
2023/06/01 06:11:54;;;;;;;17.50;15.63;;;;;;;23.57;61.93;95230.63;5010890;28;20816;-60
2023/06/01 06:14:20;;;;;;;18.90;15.32;;;;;;;23.81;61.13;95239.94;5010329;28;20206;-55
2023/06/01 06:16:47;;;;;;;15.10;13.68;;;;;;;23.87;61.25;95242.03;5010116;28;20718;-57
2023/06/01 06:19:15;;;;;;;18.27;15.38;;;;;;;24.19;60.36;95237.56;5010675;28;20202;-56
2023/06/01 06:21:43;;;;;;;17.48;15.23;;;;;;;25.48;57.36;95233.25;5010461;28;20203;-62
2023/06/01 06:24:10;;;;;;;16.77;15.07;;;;;;;27.82;51.95;95225.00;5010565;28;21788;-57
2023/06/01 06:26:36;;;;;;;16.23;14.63;;;;;;;30.58;44.46;95228.25;5007912;28;20321;-59
2023/06/01 06:29:03;;;;;;;15.18;13.68;;;;;;;34.17;39.34;95219.84;5009288;28;20329;-59
2023/06/01 06:31:30;;;;;;;15.45;14.07;;;;;;;37.71;32.43;95216.69;5008738;28;20342;-58
2023/06/01 06:33:56;;;;;;;18.13;15.48;;;;;;;39.84;29.25;95221.28;5011038;28;20203;-58
2023/06/01 06:36:24;;;;;;;14.57;13.35;;;;;;;41.35;26.69;95215.00;5008095;28;20321;-59
2023/06/01 06:38:51;;;;;;;19.08;14.70;;;;;;;41.13;26.11;95225.50;5009679;28;20207;-62
2023/06/01 06:41:18;;;;;;;19.60;15.88;;;;;;;40.11;27.45;95225.94;5009880;28;20320;-59
2023/06/01 06:43:45;;;;;;;17.45;15.65;;;;;;;39.35;26.95;95218.69;5009415;28;20272;-57
2023/06/01 06:46:11;;;;;;;16.77;15.20;;;;;;;37.91;29.24;95218.38;5008885;28;20265;-60
2023/06/01 06:48:38;;;;;;;32.97;21.40;;;;;;;36.67;31.37;95216.97;5010928;28;20361;-57
2023/06/01 06:51:05;;;;;;;26.00;19.13;;;;;;;36.34;32.57;95218.91;5008875;28;20787;-60
2023/06/01 06:53:33;;;;;;;21.10;16.98;;;;;;;36.25;32.45;95220.94;5009803;28;20412;-61
2023/06/01 06:56:00;;;;;;;19.58;17.60;;;;;;;37.25;31.57;95210.88;5011745;28;20281;-58
2023/06/01 06:58:27;;;;;;;21.42;18.30;;;;;;;37.99;29.78;95212.81;5009865;28;20233;-60
2023/06/01 07:00:54;;;;;;;21.38;17.60;;;;;;;39.56;28.03;95213.94;5009528;28;20684;-58
2023/06/01 07:03:21;;;;;;;19.40;17.52;;;;;;;40.78;25.59;95217.63;5009273;28;20615;-61
2023/06/01 07:05:48;;;;;;;19.42;17.38;;;;;;;40.01;26.74;95217.75;5009961;28;20199;-63
2023/06/01 07:08:15;;;;;;;17.65;15.98;;;;;;;40.43;25.88;95215.78;5006163;28;21946;-62
2023/06/01 07:10:43;;;;;;;17.02;15.48;;;;;;;42.36;24.48;95210.53;5009176;28;20203;-62
2023/06/01 07:13:10;;;;;;;16.73;15.10;;;;;;;44.31;22.27;95203.28;5009779;28;20293;-60
2023/06/01 07:15:36;;;;;;;18.77;16.02;;;;;;;44.93;21.21;95202.59;5009203;28;20298;-62
2023/06/01 07:18:03;;;;;;;20.80;16.90;;;;;;;44.73;21.21;95210.53;5008996;28;20292;-63
2023/06/01 07:20:30;;;;;;;20.35;18.00;;;;;;;43.61;22.38;95207.03;5009483;28;20680;-61
2023/06/01 07:22:56;;;;;;;25.65;19.13;;;;;;;42.21;23.86;95195.13;5008957;28;20627;-62
2023/06/01 07:25:23;;;;;;;23.52;18.48;;;;;;;40.72;25.32;95194.53;5007936;28;20665;-62
2023/06/01 07:27:52;;;;;;;22.55;19.30;;;;;;;39.52;26.83;95189.66;5009659;28;20202;-57
2023/06/01 07:30:19;;;;;;;19.92;17.27;;;;;;;38.08;29.19;95200.91;5009444;28;20330;-62
2023/06/01 07:32:45;;;;;;;21.02;18.58;;;;;;;36.97;30.98;95200.59;5008825;28;20325;-61
2023/06/01 07:35:12;;;;;;;20.27;18.00;;;;;;;36.52;31.24;95197.06;5008559;28;20643;-61
2023/06/01 07:37:39;;;;;;;21.25;18.48;;;;;;;36.97;31.20;95198.75;5007234;28;20227;-59
2023/06/01 07:40:07;;;;;;;24.35;19.60;;;;;;;37.54;29.94;95193.56;5009025;28;20305;-62
2023/06/01 07:42:34;;;;;;;21.50;19.27;;;;;;;38.00;29.75;95191.38;5008342;28;20206;-61
2023/06/01 07:45:03;;;;;;;20.85;16.55;;;;;;;38.34;28.92;95199.84;5008340;28;20211;-60
2023/06/01 07:47:29;;;;;;;21.13;19.05;;;;;;;38.85;28.08;95188.88;5009372;28;20656;-62
2023/06/01 07:49:56;;;;;;;28.08;18.67;;;;;;;39.73;27.56;95188.28;5007123;28;21312;-59
2023/06/01 07:52:23;;;;;;;22.65;20.38;;;;;;;40.02;26.92;95186.59;5009141;28;20231;-60
2023/06/01 07:54:49;;;;;;;22.35;19.10;;;;;;;39.43;27.59;95167.03;5008099;28;20214;-62
2023/06/01 07:57:16;;;;;;;21.95;19.40;;;;;;;38.54;27.98;95175.75;5007862;28;20766;-62
2023/06/01 07:59:43;;;;;;;18.92;17.13;;;;;;;38.06;29.67;95176.41;5006898;28;20700;-62
2023/06/01 08:02:13;;;;;;;22.70;19.25;;;;;;;38.69;29.10;95169.03;5008666;28;20608;-59
2023/06/01 08:04:40;;;;;;;20.85;18.85;;;;;;;39.12;28.19;95179.53;5008272;28;20214;-61
2023/06/01 08:07:08;;;;;;;19.67;17.92;;;;;;;38.66;28.93;95176.63;5009001;28;20207;-58
2023/06/01 08:09:37;;;;;;;19.85;16.48;;;;;;;39.29;28.05;95176.25;5005978;28;20293;-61
2023/06/01 08:12:04;;;;;;;19.08;17.05;;;;;;;40.25;26.42;95181.28;5009267;28;20242;-57
2023/06/01 08:14:33;;;;;;;21.17;17.67;;;;;;;40.45;25.90;95175.59;5008001;28;20955;-60
2023/06/01 08:17:01;;;;;;;21.10;17.02;;;;;;;40.93;26.13;95167.28;5007414;28;20207;-58
2023/06/01 08:19:29;;;;;;;17.95;16.40;;;;;;;42.15;24.38;95163.25;5008167;28;20214;-64
2023/06/01 08:21:55;;;;;;;18.35;16.48;;;;;;;43.14;23.62;95172.00;5008347;28;20330;-59
2023/06/01 08:24:24;;;;;;;17.80;16.05;;;;;;;43.22;22.88;95166.22;5006950;28;20210;-59
2023/06/01 08:26:51;;;;;;;16.05;14.52;;;;;;;42.36;24.04;95159.78;5007937;28;20207;-56
2023/06/01 08:29:18;;;;;;;16.38;14.70;;;;;;;41.62;24.91;95149.34;5006392;28;20202;-60
2023/06/01 08:31:45;;;;;;;18.25;15.95;;;;;;;42.55;23.43;95147.00;5006278;28;20211;-59
2023/06/01 08:34:11;;;;;;;19.33;16.30;;;;;;;41.72;23.54;95144.19;5007640;28;20257;-60
2023/06/01 08:36:39;;;;;;;19.65;16.27;;;;;;;40.91;24.75;95142.72;5006813;28;20327;-62
2023/06/01 08:39:20;;;;;;;16.88;15.25;;;;;;;40.77;25.41;95152.03;5005791;28;20210;-57
2023/06/01 08:41:59;;;;;;;17.00;14.75;;;;;;;41.05;25.57;95141.38;5007780;28;20290;-59
2023/06/01 08:44:28;;;;;;;18.00;15.52;;;;;;;41.50;23.93;95140.59;5008169;28;20722;-61
2023/06/01 08:46:56;;;;;;;14.70;13.35;;;;;;;41.08;24.37;95148.88;5007722;28;20207;-57
2023/06/01 08:49:24;;;;;;;16.13;14.63;;;;;;;40.64;24.92;95137.09;5006035;28;20273;-57
2023/06/01 08:51:57;;;;;;;14.45;13.13;;;;;;;41.02;24.89;95139.19;5006888;28;20315;-59
2023/06/01 08:54:24;;;;;;;14.77;12.43;;;;;;;43.28;22.61;95124.28;5007482;28;20199;-65
2023/06/01 08:56:51;;;;;;;13.20;11.95;;;;;;;44.96;20.99;95126.97;5007851;28;20203;-60
2023/06/01 08:59:18;;;;;;;12.45;11.20;;;;;;;45.74;19.85;95122.25;5005235;28;20767;-70
2023/06/01 09:01:46;;;;;;;16.30;10.52;;;;;;;46.39;19.57;95119.72;5005309;28;20697;-69
2023/06/01 09:04:13;;;;;;;11.52;10.50;;;;;;;47.00;18.85;95120.28;5009271;28;20297;-64
2023/06/01 09:06:42;;;;;;;10.48;9.63;;;;;;;47.81;18.99;95118.09;5006261;28;20217;-66
2023/06/01 09:09:12;;;;;;;13.98;12.07;;;;;;;48.30;17.23;95109.78;5007450;28;20207;-64
2023/06/01 09:11:39;;;;;;;15.15;12.32;;;;;;;47.28;18.03;95110.66;5006038;28;20199;-66
2023/06/01 09:14:21;;;;;;;27.17;21.92;;;;;;;46.07;19.50;95103.94;5007303;28;20262;-69
2023/06/01 09:16:48;;;;;;;53.00;47.42;;;;;;;46.16;19.76;95102.31;4999166;28;20213;-65
2023/06/01 09:19:15;;;;;;;32.45;29.02;;;;;;;46.56;19.13;95104.03;5003592;28;22724;-65
2023/06/01 09:21:57;;;;;;;17.25;15.55;;;;;;;45.60;19.36;95104.25;5003622;28;20255;-65
2023/06/01 09:24:25;;;;;;;10.90;9.98;;;;;;;44.98;20.07;95111.41;5005392;28;20211;-65
2023/06/01 09:26:58;;;;;;;26.65;23.80;;;;;;;44.62;20.70;95106.97;5004200;28;20676;-65
2023/06/01 09:29:25;;;;;;;23.30;20.83;;;;;;;44.02;21.32;95108.31;5005241;28;20596;-65
2023/06/01 09:31:51;;;;;;;31.52;21.45;;;;;;;43.18;22.15;95103.56;5004818;28;20296;-64
2023/06/01 09:34:20;;;;;;;17.13;15.43;;;;;;;42.60;22.26;95090.91;5007095;28;20691;-63
2023/06/01 09:36:48;;;;;;;16.20;12.02;;;;;;;41.58;23.04;95102.84;5007401;28;20891;-66
2023/06/01 09:39:16;;;;;;;14.35;10.30;;;;;;;40.36;23.93;95095.25;5006616;28;21009;-65
2023/06/01 09:41:53;;;;;;;9.57;8.65;;;;;;;39.02;25.26;95086.25;5007229;28;20211;-63
2023/06/01 09:44:24;;;;;;;8.63;7.50;;;;;;;37.62;25.76;95085.34;5008449;28;20264;-65
2023/06/01 09:46:52;;;;;;;13.05;8.02;;;;;;;36.31;28.49;95082.50;5007476;28;20850;-63
2023/06/01 09:49:21;;;;;;;7.57;6.97;;;;;;;34.81;29.86;95081.56;5004982;28;20749;-64
2023/06/01 09:51:48;;;;;;;7.68;6.93;;;;;;;33.77;32.19;95079.00;5006518;28;20611;-63
2023/06/01 09:54:26;;;;;;;7.90;7.30;;;;;;;32.71;34.93;95064.91;5006644;28;20231;-63
2023/06/01 09:56:55;;;;;;;11.88;6.90;;;;;;;31.77;36.29;95071.03;5005857;28;20205;-67
2023/06/01 09:59:23;;;;;;;11.52;7.13;;;;;;;30.90;38.03;95068.03;5005881;28;20273;-63
2023/06/01 10:01:55;;;;;;;12.50;8.25;;;;;;;30.20;40.56;95062.84;5006635;28;20627;-65
2023/06/01 10:04:24;;;;;;;9.07;7.78;;;;;;;29.84;40.35;95064.28;5007433;28;20191;-61
2023/06/01 10:06:53;;;;;;;8.43;7.57;;;;;;;29.42;41.03;95057.53;5009465;28;20303;-63
2023/06/01 10:09:21;;;;;;;7.20;6.68;;;;;;;28.77;41.41;95052.25;5009978;28;20292;-63
2023/06/01 10:11:49;;;;;;;7.13;6.57;;;;;;;28.14;43.24;95055.41;5010700;28;20289;-63
2023/06/01 10:14:17;;;;;;;7.18;6.53;;;;;;;27.61;43.68;95061.69;5009872;28;20241;-60
2023/06/01 10:16:44;;;;;;;9.20;7.53;;;;;;;27.28;44.55;95060.63;5009696;28;20337;-62
2023/06/01 10:19:13;;;;;;;7.88;7.03;;;;;;;26.97;46.61;95060.28;5010897;28;20213;-62
2023/06/01 10:21:42;;;;;;;8.65;7.85;;;;;;;26.89;48.92;95054.97;5010496;28;20199;-64
2023/06/01 10:24:10;;;;;;;9.43;8.43;;;;;;;26.91;49.37;95063.44;5008718;28;20199;-62
2023/06/01 10:26:43;;;;;;;11.30;8.13;;;;;;;27.14;49.76;95063.81;5010249;28;20654;-63
2023/06/01 10:29:10;;;;;;;10.73;7.28;;;;;;;27.50;48.70;95061.09;5010665;28;20849;-64
2023/06/01 10:31:40;;;;;;;7.00;6.38;;;;;;;27.78;44.86;95063.41;5009892;28;20207;-62
2023/06/01 10:34:08;;;;;;;6.15;5.68;;;;;;;27.86;42.19;95064.44;5009643;28;20308;-63
2023/06/01 10:37:13;;;;;;;6.32;5.53;;;;;;;27.80;44.03;95065.88;5011045;28;20292;-62
2023/06/01 10:39:40;;;;;;;9.23;5.50;;;;;;;27.37;41.69;95069.34;5008774;28;20213;-65
2023/06/01 10:42:38;;;;;;;6.60;5.25;;;;;;;26.97;43.22;95062.88;5011571;28;20246;-61
2023/06/01 10:45:07;;;;;;;5.68;4.72;;;;;;;26.77;41.90;95066.56;5009959;28;20341;-64
2023/06/01 10:47:48;;;;;;;5.50;4.85;;;;;;;26.74;41.88;95056.44;5009507;28;20278;-62
2023/06/01 10:50:17;;;;;;;5.85;5.35;;;;;;;26.54;41.50;95054.97;5009562;28;22043;-62
2023/06/01 10:52:44;;;;;;;6.18;5.25;;;;;;;26.43;42.93;95056.00;5009553;28;20206;-62
2023/06/01 10:55:22;;;;;;;7.07;5.90;;;;;;;26.43;44.68;95058.63;5009577;28;20207;-63
2023/06/01 10:57:49;;;;;;;7.43;6.40;;;;;;;26.43;45.04;95043.81;5009455;28;20767;-62
2023/06/01 11:00:17;;;;;;;6.00;5.50;;;;;;;26.47;46.13;95043.50;5008768;28;20703;-62
2023/06/01 11:02:50;;;;;;;6.40;5.85;;;;;;;26.39;46.49;95039.84;5009152;28;20207;-62
2023/06/01 11:05:46;;;;;;;7.70;6.20;;;;;;;26.16;47.73;95033.41;5008291;28;20334;-63
2023/06/01 11:08:50;;;;;;;6.47;5.93;;;;;;;26.17;47.56;95031.63;5010639;28;20210;-65
2023/06/01 11:11:17;;;;;;;6.22;5.75;;;;;;;26.23;47.38;95039.63;5008676;28;20579;-62
2023/06/01 11:13:45;;;;;;;6.82;6.32;;;;;;;26.27;44.86;95033.16;5010062;28;20350;-63
2023/06/01 11:16:31;;;;;;;6.22;5.85;;;;;;;26.36;43.17;95028.91;5008626;28;20207;-62
2023/06/01 11:19:02;;;;;;;8.73;6.18;;;;;;;26.37;44.41;95025.34;5009452;28;20229;-64
2023/06/01 11:21:30;;;;;;;7.72;6.95;;;;;;;26.47;44.50;95020.88;5008312;28;20303;-63
2023/06/01 11:23:58;;;;;;;8.68;6.47;;;;;;;26.67;44.65;95018.94;5008198;28;20207;-64
2023/06/01 11:26:30;;;;;;;6.95;6.35;;;;;;;26.76;43.94;95010.19;5007764;28;20203;-62